Time;durP1;ratioP1;P1;durP2;ratioP2;P2;SDS_P1;SDS_P2;PMS_P1;PMS_P2;Temp;Humidity;BMP_temperature;BMP_pressure;BME280_temperature;BME280_humidity;BME280_pressure;Samples;Min_cycle;Max_cycle;Signal;HPM_P1;HPM_P2
2021/06/21 00:01:48;;;;;;;21.25;11.50;;;26.00;99.90;;;26.56;63.72;100150.16;5098564;28;20187;-71
2021/06/21 00:04:16;;;;;;;16.27;9.20;;;25.90;99.90;;;26.51;63.84;100141.78;5107857;28;20185;-69
2021/06/21 00:06:43;;;;;;;19.00;9.45;;;25.90;99.90;;;26.40;64.56;100140.28;5105104;28;20244;-76
2021/06/21 00:09:09;;;;;;;17.20;9.45;;;25.80;99.90;;;26.34;65.17;100138.28;5105127;28;20194;-72
2021/06/21 00:11:36;;;;;;;17.67;8.55;;;25.70;99.90;;;26.29;65.37;100129.91;5092901;28;20683;-68
2021/06/21 00:14:03;;;;;;;16.65;8.63;;;25.70;99.90;;;26.24;65.52;100118.84;5102401;27;20191;-72
2021/06/21 00:16:30;;;;;;;14.65;9.07;;;25.70;99.90;;;26.21;65.68;100107.66;5119587;28;20207;-73
2021/06/21 00:18:57;;;;;;;17.10;9.43;;;25.60;99.90;;;26.11;66.75;100113.19;5108718;28;20218;-71
2021/06/21 00:21:25;;;;;;;19.40;10.13;;;25.50;99.90;;;26.02;66.97;100103.50;5093406;28;20805;-77
2021/06/21 00:23:52;;;;;;;16.30;10.13;;;25.50;99.90;;;25.98;67.39;100102.13;5105379;28;20187;-72
2021/06/21 00:26:19;;;;;;;22.48;9.52;;;25.40;99.90;;;25.94;67.31;100096.25;5099522;28;20218;-76
2021/06/21 00:28:46;;;;;;;20.70;9.98;;;25.30;99.90;;;25.89;67.82;100085.19;5104707;28;20229;-74
2021/06/21 00:31:13;;;;;;;17.00;10.18;;;25.30;99.90;;;25.82;67.62;100080.72;5126370;27;20242;-75
2021/06/21 00:33:40;;;;;;;15.68;9.68;;;25.20;99.90;;;25.74;68.02;100081.53;5113724;28;20673;-73
2021/06/21 00:36:07;;;;;;;16.58;9.40;;;25.10;99.90;;;25.71;68.52;100073.84;5111609;28;20223;-70
2021/06/21 00:38:36;;;;;;;17.35;9.48;;;25.10;99.90;;;25.68;68.20;100074.19;5105435;28;20210;-70
2021/06/21 00:41:03;;;;;;;16.08;9.25;;;25.00;99.90;;;25.62;68.46;100084.75;5102460;28;20187;-69
2021/06/21 00:43:29;;;;;;;18.27;9.50;;;25.00;99.90;;;25.54;69.15;100080.22;5101921;28;20678;-70
2021/06/21 00:45:56;;;;;;;18.48;9.48;;;24.90;99.90;;;25.49;69.30;100076.38;5132288;27;20198;-71
2021/06/21 00:48:23;;;;;;;15.02;9.05;;;24.80;99.90;;;25.45;68.97;100078.53;5105371;28;20216;-70
2021/06/21 00:50:50;;;;;;;18.60;9.48;;;24.80;99.90;;;25.41;69.16;100081.72;5105460;28;20222;-72
2021/06/21 00:53:19;;;;;;;19.50;10.25;;;24.80;99.90;;;25.38;69.44;100076.72;5109210;28;20285;-70
2021/06/21 00:55:47;;;;;;;17.15;9.13;;;24.70;99.90;;;25.34;69.19;100075.34;5106973;28;20217;-70
2021/06/21 00:58:14;;;;;;;18.42;8.73;;;24.70;99.90;;;25.30;69.23;100079.38;5113487;28;20217;-72
2021/06/21 01:00:41;;;;;;;18.33;9.35;;;24.70;99.90;;;25.26;69.83;100078.03;5104999;28;20199;-71
2021/06/21 01:03:08;;;;;;;14.75;9.55;;;24.60;99.90;;;25.26;69.48;100088.75;5115276;28;20195;-71
2021/06/21 01:05:36;;;;;;;17.25;8.88;;;24.60;99.90;;;25.27;69.48;100079.72;5103228;28;20198;-70
2021/06/21 01:08:05;;;;;;;15.30;8.70;;;24.60;99.90;;;25.27;69.50;100085.06;5112199;28;20214;-71
2021/06/21 01:10:33;;;;;;;15.48;8.80;;;24.60;99.90;;;25.28;69.17;100086.72;5117456;28;20235;-71
2021/06/21 01:13:27;;;;;;;16.65;8.43;;;24.60;99.90;;;25.29;68.73;100078.53;5105902;28;20532;-70
2021/06/21 01:16:16;;;;;;;16.17;8.48;;;24.60;99.90;;;25.29;68.94;100077.69;5116794;28;20282;-71
2021/06/21 01:18:53;;;;;;;14.90;8.27;;;24.60;99.90;;;25.26;68.83;100088.75;5102829;28;20206;-70
2021/06/21 01:22:17;;;;;;;15.80;8.50;;;24.60;99.90;;;25.18;68.66;100075.34;5101796;28;20193;-71
2021/06/21 01:25:19;;;;;;;16.58;8.00;;;24.50;99.90;;;25.15;68.40;100081.03;5111757;28;20191;-71
2021/06/21 01:28:02;;;;;;;16.65;7.85;;;24.50;99.90;;;25.10;68.63;100076.16;5102073;28;20214;-72
2021/06/21 01:30:52;;;;;;;12.15;7.32;;;24.50;99.90;;;25.04;68.78;100086.69;5099838;28;20190;-71
2021/06/21 01:33:22;;;;;;;16.55;8.13;;;24.40;99.90;;;25.03;68.35;100088.56;5104714;28;20195;-70
2021/06/21 01:35:54;;;;;;;17.30;7.72;;;24.40;99.90;;;25.02;68.05;100086.06;5108260;28;20205;-73
2021/06/21 01:38:29;;;;;;;15.02;7.82;;;24.40;99.90;;;25.01;68.44;100079.84;5109754;28;20221;-72
2021/06/21 01:41:01;;;;;;;14.55;7.60;;;24.40;99.90;;;24.99;68.19;100081.00;5107254;28;20190;-72
2021/06/21 01:43:33;;;;;;;16.13;7.88;;;24.30;99.90;;;24.98;68.26;100084.69;5114172;28;20197;-71
2021/06/21 01:46:05;;;;;;;13.38;7.80;;;24.30;99.90;;;24.94;68.24;100081.50;5115410;28;20190;-72
2021/06/21 01:48:37;;;;;;;15.48;7.30;;;24.30;99.90;;;24.91;68.22;100072.97;5106771;28;20198;-71
2021/06/21 01:51:05;;;;;;;14.77;7.68;;;24.20;99.90;;;24.89;68.50;100069.59;5113985;28;20190;-71
2021/06/21 01:53:37;;;;;;;14.27;7.43;;;24.20;99.90;;;24.85;68.56;100074.44;5113022;28;20190;-70
2021/06/21 01:56:10;;;;;;;16.65;7.93;;;24.20;99.90;;;24.82;68.69;100082.00;5112961;28;20182;-70
2021/06/21 01:58:39;;;;;;;14.98;7.57;;;24.20;99.90;;;24.78;69.06;100090.34;5118166;28;20198;-71
2021/06/21 02:01:15;;;;;;;15.40;8.25;;;24.10;99.90;;;24.78;68.96;100079.63;5120443;28;20238;-71
2021/06/21 02:03:46;;;;;;;24.85;11.70;;;24.10;99.90;;;24.75;69.11;100081.78;5126444;28;20255;-71
2021/06/21 02:06:14;;;;;;;17.50;9.25;;;24.10;99.90;;;24.72;69.55;100099.03;5125357;28;20190;-72
2021/06/21 02:08:43;;;;;;;18.08;9.57;;;24.00;99.90;;;24.72;69.73;100096.34;5105588;28;20191;-74
2021/06/21 02:11:11;;;;;;;17.10;10.15;;;24.00;99.90;;;24.74;69.51;100109.56;5100847;28;20546;-71
2021/06/21 02:13:39;;;;;;;18.75;10.13;;;24.10;99.90;;;24.77;69.47;100113.78;5093818;28;20218;-71
2021/06/21 02:16:08;;;;;;;18.90;9.48;;;24.10;99.90;;;24.81;69.75;100125.81;5094691;28;20187;-72
2021/06/21 02:18:36;;;;;;;20.75;12.40;;;24.10;99.90;;;24.80;70.08;100129.53;5119144;28;20207;-70
2021/06/21 02:21:07;;;;;;;21.63;9.57;;;24.10;99.90;;;24.77;69.93;100126.16;5111339;28;20574;-71
2021/06/21 02:23:36;;;;;;;19.35;10.80;;;24.10;99.90;;;24.75;70.39;100125.47;5099619;28;20199;-71
2021/06/21 02:26:03;;;;;;;19.02;10.13;;;24.00;99.90;;;24.75;70.20;100120.13;5097149;28;20207;-71
2021/06/21 02:28:32;;;;;;;20.02;9.82;;;24.00;99.90;;;24.74;70.26;100120.28;5104313;28;20226;-69
2021/06/21 02:31:00;;;;;;;17.27;9.70;;;23.90;99.90;;;24.72;70.75;100138.34;5097513;28;20195;-71
2021/06/21 02:33:27;;;;;;;19.08;10.60;;;23.80;99.90;;;24.66;71.21;100160.41;5103636;28;20197;-70
2021/06/21 02:35:54;;;;;;;17.15;9.40;;;23.60;99.90;;;24.58;71.71;100185.28;5102590;28;20198;-70
2021/06/21 02:38:23;;;;;;;21.70;10.55;;;23.30;99.90;;;24.51;72.67;100194.97;5115279;28;20582;-70
2021/06/21 02:40:50;;;;;;;21.83;11.80;;;23.10;99.90;;;24.39;73.29;100173.97;5098623;28;20200;-71
2021/06/21 02:43:18;;;;;;;24.67;13.23;;;22.80;99.90;;;23.95;76.79;100156.25;5100793;28;20187;-67
2021/06/21 02:45:45;;;;;;;23.52;11.93;;;22.50;99.90;;;23.45;80.56;100151.53;5099467;28;20186;-68
2021/06/21 02:48:13;;;;;;;21.85;12.13;;;22.20;99.90;;;23.04;83.84;100247.41;5106454;28;20218;-65
2021/06/21 02:50:44;;;;;;;21.23;12.23;;;21.70;99.90;;;22.73;85.17;100336.72;5108676;28;20190;-66
2021/06/21 02:53:25;;;;;;;25.95;12.60;;;21.50;99.90;;;22.50;87.81;100332.66;5122429;27;20260;-67
2021/06/21 02:56:03;;;;;;;23.13;12.00;;;21.40;99.90;;;22.39;88.98;100329.16;5110807;28;20202;-68
2021/06/21 02:58:36;;;;;;;22.73;12.32;;;21.40;99.90;;;22.38;89.85;100314.16;5115464;28;20258;-66
2021/06/21 03:01:08;;;;;;;22.88;13.57;;;21.40;99.90;;;22.42;90.28;100302.19;5110560;28;20568;-68
2021/06/21 03:03:39;;;;;;;20.83;13.05;;;21.40;99.90;;;22.53;90.34;100289.69;5093768;28;20193;-68
2021/06/21 03:06:08;;;;;;;21.92;12.25;;;21.50;99.90;;;22.63;90.04;100285.19;5104335;28;20182;-65
2021/06/21 03:08:39;;;;;;;19.45;11.93;;;21.60;99.90;;;22.67;89.95;100270.59;5112886;28;20651;-66
2021/06/21 03:11:09;;;;;;;22.20;12.40;;;21.60;99.90;;;22.70;90.15;100257.81;5115000;28;20270;-65
2021/06/21 03:13:37;;;;;;;18.08;12.15;;;21.70;99.90;;;22.72;90.23;100255.84;5097027;28;20199;-68
2021/06/21 03:16:06;;;;;;;20.67;12.45;;;21.70;99.90;;;22.72;90.45;100246.97;5093797;28;20184;-67
2021/06/21 03:18:34;;;;;;;19.33;11.73;;;21.70;99.90;;;22.73;90.62;100228.13;5100736;28;20211;-68
2021/06/21 03:21:01;;;;;;;18.42;11.20;;;21.70;99.90;;;22.75;90.49;100231.50;5115005;28;20188;-67
2021/06/21 03:23:31;;;;;;;19.02;11.20;;;21.80;99.90;;;22.78;90.12;100230.38;5113943;28;20187;-68
2021/06/21 03:26:04;;;;;;;18.90;11.05;;;21.90;99.90;;;22.78;90.05;100228.53;5115302;28;20274;-68
2021/06/21 03:28:32;;;;;;;15.85;8.75;;;21.90;99.90;;;22.76;89.33;100222.50;5115281;28;20702;-66
2021/06/21 03:31:04;;;;;;;15.38;8.88;;;22.00;99.90;;;22.74;89.02;100210.31;5113522;28;20205;-68
2021/06/21 03:33:32;;;;;;;15.90;8.48;;;22.00;99.90;;;22.73;88.43;100205.94;5114693;28;20681;-68
2021/06/21 03:35:59;;;;;;;14.95;7.50;;;22.00;99.90;;;22.74;88.59;100202.31;5114854;28;20182;-68
2021/06/21 03:38:30;;;;;;;15.68;7.22;;;22.00;99.90;;;22.74;88.24;100196.97;5114122;28;20229;-68
2021/06/21 03:41:00;;;;;;;11.40;6.20;;;22.10;99.90;;;22.73;87.07;100181.91;5114391;28;20191;-69
2021/06/21 03:43:29;;;;;;;12.18;5.78;;;22.10;99.90;;;22.73;86.56;100179.25;5115093;28;20183;-70
2021/06/21 03:46:00;;;;;;;14.15;6.00;;;22.10;99.90;;;22.69;86.17;100165.34;5116116;28;20186;-67
2021/06/21 03:48:29;;;;;;;13.60;6.78;;;22.10;99.90;;;22.70;86.00;100161.72;5125412;27;20214;-67
2021/06/21 03:50:56;;;;;;;13.48;6.95;;;22.10;99.90;;;22.74;86.05;100164.94;5111109;28;20191;-69
2021/06/21 03:53:26;;;;;;;15.10;6.70;;;22.10;99.90;;;22.82;85.39;100162.34;5115490;28;20698;-69
2021/06/21 03:55:53;;;;;;;14.48;7.07;;;22.20;99.90;;;22.86;85.29;100142.38;5116348;28;20190;-68
2021/06/21 03:58:22;;;;;;;13.32;7.13;;;22.20;99.90;;;22.91;84.77;100134.75;5132066;27;20214;-67
2021/06/21 04:00:49;;;;;;;13.18;6.93;;;22.20;99.90;;;22.93;84.44;100127.44;5115497;28;20183;-67
2021/06/21 04:03:16;;;;;;;14.82;7.65;;;22.20;99.90;;;22.92;84.74;100117.75;5114506;28;20194;-68
2021/06/21 04:05:44;;;;;;;12.85;7.38;;;22.20;99.90;;;22.97;84.82;100112.81;5113430;28;20277;-68
2021/06/21 04:08:14;;;;;;;14.90;8.32;;;22.20;99.90;;;23.00;84.78;100110.66;5115700;28;20207;-68
2021/06/21 04:10:41;;;;;;;15.55;8.30;;;22.20;99.90;;;23.04;84.45;100108.53;5119312;27;20193;-69
2021/06/21 04:13:09;;;;;;;18.33;9.05;;;22.30;99.90;;;23.09;84.31;100099.06;5115994;28;20179;-67
2021/06/21 04:15:38;;;;;;;17.45;9.65;;;22.30;99.90;;;23.13;84.33;100091.59;5114351;28;20183;-64
2021/06/21 04:18:08;;;;;;;22.08;10.30;;;22.30;99.90;;;23.14;83.89;100078.06;5112008;28;20218;-66
2021/06/21 04:20:36;;;;;;;21.13;9.45;;;22.30;99.90;;;23.14;83.45;100072.72;5123277;27;20197;-69
2021/06/21 04:23:06;;;;;;;18.33;9.80;;;22.30;99.90;;;23.15;83.17;100061.06;5115643;28;20628;-68
2021/06/21 04:25:33;;;;;;;18.98;9.63;;;22.30;99.90;;;23.17;82.82;100047.56;5114101;28;20186;-67
2021/06/21 04:27:59;;;;;;;16.65;9.27;;;22.30;99.90;;;23.20;82.78;100042.75;5112928;28;20211;-69
2021/06/21 04:30:27;;;;;;;17.80;9.68;;;22.30;99.90;;;23.23;82.09;100036.25;5114880;28;20651;-69
2021/06/21 04:32:56;;;;;;;17.40;10.10;;;22.30;99.90;;;23.25;81.58;100031.59;5116953;28;20224;-69
2021/06/21 04:35:25;;;;;;;19.17;10.00;;;22.30;99.90;;;23.29;81.57;100027.66;5115659;28;20265;-69
2021/06/21 04:37:53;;;;;;;15.70;8.90;;;22.40;99.90;;;23.31;80.75;100023.84;5115516;28;20215;-67
2021/06/21 04:40:25;;;;;;;16.60;9.32;;;22.40;99.90;;;23.30;80.63;100018.66;5115127;28;20215;-68
2021/06/21 04:42:52;;;;;;;18.92;8.63;;;22.40;99.90;;;23.28;80.29;100025.97;5114531;28;20182;-68
2021/06/21 04:45:19;;;;;;;16.55;10.00;;;22.40;99.90;;;23.25;79.77;100031.59;5114256;28;20179;-67
2021/06/21 04:47:46;;;;;;;17.80;9.18;;;22.40;99.90;;;23.26;79.47;100038.63;5113957;28;20203;-65
2021/06/21 04:50:18;;;;;;;15.15;9.27;;;22.40;99.90;;;23.28;79.59;100037.50;5113045;28;20198;-66
2021/06/21 04:52:48;;;;;;;17.55;11.73;;;22.40;99.90;;;23.32;79.46;100022.00;5113556;28;20244;-67
2021/06/21 04:55:17;;;;;;;19.17;11.05;;;22.40;99.90;;;23.36;79.00;100015.38;5106504;28;20623;-68
2021/06/21 04:57:45;;;;;;;19.40;10.93;;;22.40;99.90;;;23.37;79.39;100011.69;5117705;28;20225;-68
2021/06/21 05:00:15;;;;;;;20.52;12.00;;;22.50;99.90;;;23.39;78.98;100018.53;5132447;27;20246;-74
2021/06/21 05:02:43;;;;;;;21.75;12.55;;;22.50;99.90;;;23.40;78.70;100006.03;5113523;28;20273;-69
2021/06/21 05:05:11;;;;;;;19.58;11.25;;;22.50;99.90;;;23.45;78.32;99985.03;5113165;28;20183;-70
2021/06/21 05:07:41;;;;;;;20.60;10.85;;;22.60;99.90;;;23.49;77.90;99976.53;5111872;28;20213;-69
2021/06/21 05:10:10;;;;;;;17.23;9.63;;;22.70;99.90;;;23.53;77.65;99971.72;5109653;28;20195;-69
2021/06/21 05:12:37;;;;;;;17.98;9.38;;;22.70;99.90;;;23.55;77.07;99980.41;5111874;28;20648;-69
2021/06/21 05:15:07;;;;;;;18.17;9.75;;;22.80;99.90;;;23.56;77.30;99966.88;5111828;28;20198;-70
2021/06/21 05:17:34;;;;;;;22.75;9.90;;;22.90;99.90;;;23.54;76.63;99952.84;5113067;28;20211;-68
2021/06/21 05:20:01;;;;;;;15.95;9.50;;;22.80;99.90;;;23.53;77.16;99963.69;5110580;28;20218;-66
2021/06/21 05:22:28;;;;;;;18.55;10.60;;;22.90;99.90;;;23.51;77.00;99958.50;5112575;28;20210;-68
2021/06/21 05:24:57;;;;;;;15.57;9.75;;;22.90;99.90;;;23.48;77.15;99956.16;5111484;28;20183;-69
2021/06/21 05:27:24;;;;;;;16.58;9.77;;;22.80;99.90;;;23.47;77.12;99967.00;5112742;28;20600;-69
2021/06/21 05:29:51;;;;;;;17.02;9.25;;;22.80;99.90;;;23.46;76.71;99992.06;5112713;28;20240;-70
2021/06/21 05:32:18;;;;;;;18.25;10.60;;;22.80;99.90;;;23.49;76.95;100002.44;5111485;28;20198;-68
2021/06/21 05:34:45;;;;;;;20.15;9.77;;;22.80;99.90;;;23.53;76.71;100017.97;5112556;28;20578;-69
2021/06/21 05:37:11;;;;;;;16.23;10.00;;;22.90;99.90;;;23.56;76.49;100027.53;5111831;28;20214;-70
2021/06/21 05:39:38;;;;;;;18.88;9.95;;;22.90;99.90;;;23.61;76.64;100043.09;5112313;28;20217;-68
2021/06/21 05:42:08;;;;;;;19.02;10.00;;;23.00;99.90;;;23.65;76.57;100037.25;5111991;28;20205;-67
2021/06/21 05:44:35;;;;;;;19.48;9.52;;;23.00;99.90;;;23.68;76.54;100034.28;5112593;28;20187;-69
2021/06/21 05:47:03;;;;;;;19.63;10.18;;;23.10;99.90;;;23.71;76.21;100023.28;5107689;28;20645;-68
2021/06/21 05:49:30;;;;;;;16.73;9.57;;;23.10;99.90;;;23.79;76.00;100022.47;5097792;28;20530;-67
2021/06/21 05:51:56;;;;;;;16.25;9.43;;;23.20;99.90;;;23.88;75.75;100022.34;5112101;28;20179;-70
2021/06/21 05:54:23;;;;;;;17.92;9.98;;;23.30;99.90;;;23.96;75.54;100024.25;5111162;28;20190;-68
2021/06/21 05:56:50;;;;;;;17.08;9.10;;;23.50;99.90;;;24.05;75.18;100037.50;5112244;28;20225;-68
2021/06/21 05:59:18;;;;;;;14.75;9.10;;;23.60;99.90;;;24.14;74.90;100047.28;5111125;28;20733;-69
2021/06/21 06:01:45;;;;;;;18.88;10.38;;;23.70;99.90;;;24.29;74.60;100067.06;5111919;28;20608;-69
2021/06/21 06:04:12;;;;;;;17.83;9.35;;;23.90;99.90;;;24.40;73.72;100068.59;5110843;28;20659;-70
2021/06/21 06:06:39;;;;;;;17.25;9.13;;;24.00;99.90;;;24.40;74.23;100063.25;5111441;28;20694;-68
2021/06/21 06:09:06;;;;;;;16.27;9.55;;;24.00;99.90;;;24.41;74.10;100056.91;5112017;28;20197;-67
2021/06/21 06:11:33;;;;;;;17.02;9.88;;;24.10;99.90;;;24.38;74.09;100060.72;5111748;28;20182;-69
2021/06/21 06:13:59;;;;;;;18.25;10.68;;;24.00;99.90;;;24.38;73.71;100075.97;5110768;28;20195;-69
2021/06/21 06:16:27;;;;;;;18.80;11.20;;;24.00;99.90;;;24.26;73.58;100078.09;5110569;28;20186;-68
2021/06/21 06:18:55;;;;;;;17.05;10.32;;;23.90;99.90;;;24.14;74.12;100082.03;5114840;28;20187;-70
2021/06/21 06:21:21;;;;;;;17.05;10.57;;;23.80;99.90;;;24.07;74.92;100081.00;5108964;28;20205;-67
2021/06/21 06:23:48;;;;;;;17.92;11.02;;;23.70;99.90;;;24.07;75.05;100070.31;5123883;27;20616;-68
2021/06/21 06:26:15;;;;;;;18.20;10.27;;;23.70;99.90;;;24.19;74.45;100077.06;5114589;28;20187;-69
2021/06/21 06:28:42;;;;;;;18.65;10.43;;;23.90;99.90;;;24.33;74.47;100083.63;5127437;27;20187;-69
2021/06/21 06:31:09;;;;;;;21.00;10.52;;;24.00;99.90;;;24.41;74.07;100092.53;5116281;28;20187;-70
2021/06/21 06:33:37;;;;;;;20.02;10.35;;;24.10;99.90;;;24.50;73.90;100080.84;5115087;28;20285;-70
2021/06/21 06:36:05;;;;;;;18.20;11.13;;;24.30;99.90;;;24.56;73.86;100082.91;5114972;28;20198;-66
2021/06/21 06:38:32;;;;;;;20.55;10.95;;;24.40;99.90;;;24.59;73.44;100085.25;5115877;28;20217;-68
2021/06/21 06:41:03;;;;;;;17.45;10.57;;;24.50;99.90;;;24.68;73.24;100092.31;5114303;28;20713;-68
2021/06/21 06:43:30;;;;;;;19.70;11.02;;;24.50;99.90;;;24.73;73.33;100089.97;5112681;28;20655;-68
2021/06/21 06:45:57;;;;;;;18.95;10.38;;;24.60;99.90;;;24.77;72.96;100091.34;5115366;28;20236;-68
2021/06/21 06:48:24;;;;;;;19.85;10.73;;;24.70;99.90;;;24.90;72.44;100101.56;5109599;27;20210;-68
2021/06/21 06:50:52;;;;;;;19.70;11.05;;;24.90;99.90;;;24.96;72.19;100105.44;5100069;28;20244;-65
2021/06/21 06:53:26;;;;;;;19.02;10.60;;;24.90;99.90;;;25.01;72.36;100103.09;5113795;27;20198;-68
2021/06/21 06:58:38;;;;;;;19.20;10.55;;;25.00;99.90;;;25.08;71.58;100090.75;5112463;28;20194;-67
2021/06/21 07:01:05;;;;;;;17.33;10.93;;;25.10;99.90;;;25.12;71.31;100094.78;5120554;27;20206;-69
2021/06/21 07:03:32;;;;;;;16.17;10.23;;;25.10;99.90;;;25.22;71.40;100082.06;5113875;28;20200;-68
2021/06/21 07:06:00;;;;;;;29.77;12.85;;;25.20;99.90;;;25.36;70.68;100078.72;5111524;28;20560;-69
2021/06/21 07:08:27;;;;;;;19.40;10.90;;;25.40;99.90;;;25.41;70.42;100085.25;5113871;28;20210;-70
2021/06/21 07:10:53;;;;;;;22.52;10.73;;;25.50;99.90;;;25.55;70.26;100081.06;5114640;28;20208;-70
2021/06/21 07:13:20;;;;;;;22.58;11.18;;;25.70;99.90;;;25.67;70.06;100067.13;5112668;28;20183;-65
2021/06/21 07:15:48;;;;;;;17.95;10.88;;;26.00;99.90;;;25.77;69.76;100064.28;5106733;28;20190;-70
2021/06/21 07:18:15;;;;;;;18.13;10.63;;;26.30;99.90;;;25.90;69.70;100060.06;5107379;28;20240;-71
2021/06/21 07:20:42;;;;;;;17.17;11.43;;;26.60;99.90;;;26.11;68.66;100070.25;5112644;27;20214;-72
2021/06/21 07:23:10;;;;;;;18.08;10.25;;;27.00;99.90;;;26.22;68.58;100061.84;5097039;28;20674;-73
2021/06/21 07:25:37;;;;;;;16.63;10.35;;;27.30;99.90;;;26.35;68.16;100058.59;5102807;28;20183;-75
2021/06/21 07:28:05;;;;;;;17.60;10.48;;;27.60;99.90;;;26.44;67.92;100071.78;5105595;28;20285;-71
2021/06/21 07:30:32;;;;;;;17.35;9.73;;;27.70;99.90;;;26.52;67.44;100095.09;5099712;28;20566;-71
2021/06/21 07:32:58;;;;;;;15.57;9.60;;;27.60;99.90;;;26.65;67.82;100098.91;5119650;27;20205;-73
2021/06/21 07:35:25;;;;;;;20.30;12.07;;;27.60;99.90;;;26.74;67.40;100088.97;5104095;27;20191;-72
2021/06/21 07:37:52;;;;;;;18.52;10.32;;;27.60;99.90;;;26.76;67.84;100095.03;5103738;28;20216;-73
2021/06/21 07:40:20;;;;;;;22.08;11.80;;;27.50;99.90;;;26.79;67.31;100091.97;5100508;28;20221;-72
2021/06/21 07:42:47;;;;;;;19.65;10.65;;;27.40;99.90;;;26.89;67.36;100092.59;5106000;28;20202;-71
2021/06/21 07:45:15;;;;;;;17.23;9.82;;;27.40;99.90;;;26.99;66.65;100099.38;5127115;27;20209;-73
2021/06/21 07:47:42;;;;;;;21.38;9.90;;;27.50;99.90;;;27.01;66.22;100102.72;5107781;28;20697;-72
2021/06/21 07:50:10;;;;;;;18.67;10.23;;;27.40;99.90;;;27.05;66.18;100097.84;5111786;28;20572;-72
2021/06/21 07:52:37;;;;;;;19.33;10.02;;;27.40;99.90;;;27.08;65.53;100101.00;5122442;27;20202;-70
2021/06/21 07:55:04;;;;;;;20.00;10.68;;;27.40;99.90;;;27.14;65.89;100104.84;5110024;28;20209;-72
2021/06/21 07:57:33;;;;;;;17.27;10.48;;;27.50;99.90;;;27.18;65.91;100098.94;5123378;27;20216;-71
2021/06/21 08:00:00;;;;;;;15.25;8.88;;;27.50;99.90;;;27.23;65.24;100105.63;5105216;28;20206;-73
2021/06/21 08:02:26;;;;;;;16.27;8.77;;;27.50;99.90;;;27.26;65.35;100099.88;5111605;28;20269;-71
2021/06/21 08:04:53;;;;;;;14.88;8.25;;;27.50;99.90;;;27.30;64.91;100101.22;5101599;28;21306;-71
2021/06/21 08:07:20;;;;;;;16.52;7.75;;;27.50;99.90;;;27.33;64.59;100103.56;5114152;27;20579;-72
2021/06/21 08:09:46;;;;;;;15.98;7.68;;;27.50;99.90;;;27.43;63.89;100101.47;5102349;27;20201;-73
2021/06/21 08:12:14;;;;;;;15.70;7.18;;;27.60;99.90;;;27.48;63.82;100104.47;5124700;27;20547;-72
2021/06/21 08:14:43;;;;;;;12.77;6.28;;;27.70;99.90;;;27.56;63.52;100104.38;5092654;28;20274;-70
2021/06/21 08:17:10;;;;;;;11.23;5.90;;;27.70;99.90;;;27.64;63.16;100098.94;5106457;27;20308;-69
2021/06/21 08:19:37;;;;;;;14.32;6.47;;;27.90;99.90;;;27.69;62.54;100112.66;5114235;27;20198;-70
2021/06/21 08:22:04;;;;;;;11.98;5.93;;;27.90;99.90;;;27.65;62.04;100116.72;5109805;28;20213;-72
2021/06/21 08:24:31;;;;;;;13.40;6.32;;;27.90;99.90;;;27.64;61.74;100109.69;5100643;28;20202;-70
2021/06/21 08:27:02;;;;;;;12.45;5.60;;;27.80;99.90;;;27.60;61.67;100108.38;5102078;28;20336;-69
2021/06/21 08:29:28;;;;;;;10.23;4.30;;;27.80;99.90;;;27.63;61.01;100118.78;5104292;27;20290;-69
2021/06/21 08:31:57;;;;;;;9.07;3.70;;;27.80;99.90;;;27.67;60.04;100112.00;5106582;28;20198;-68
2021/06/21 08:34:23;;;;;;;10.98;3.85;;;27.80;99.90;;;27.74;59.23;100112.97;5105934;28;20202;-69
2021/06/21 08:36:50;;;;;;;11.52;4.25;;;27.90;99.90;;;27.72;59.02;100109.59;5096008;28;20610;-70
2021/06/21 08:39:17;;;;;;;12.73;3.80;;;27.90;99.90;;;27.72;58.74;100117.69;5102056;28;20190;-72
2021/06/21 08:41:44;;;;;;;13.15;4.13;;;27.90;99.90;;;27.74;58.79;100116.50;5096361;28;20218;-72
2021/06/21 08:44:11;;;;;;;13.70;3.40;;;28.00;99.90;;;27.78;58.82;100127.72;5119789;27;20527;-68
2021/06/21 08:46:38;;;;;;;10.38;3.40;;;28.00;99.90;;;27.81;58.70;100121.97;5112496;27;20206;-72
2021/06/21 08:49:07;;;;;;;10.50;3.28;;;28.00;99.90;;;27.88;57.98;100122.94;5102364;28;20195;-71
2021/06/21 08:51:36;;;;;;;10.68;3.15;;;28.10;99.90;;;27.91;57.31;100122.59;5100839;28;20202;-72
2021/06/21 08:54:03;;;;;;;10.73;2.60;;;28.10;99.90;;;27.94;57.01;100117.69;5101025;28;20229;-70
2021/06/21 08:56:30;;;;;;;6.00;2.38;;;28.20;99.90;;;27.97;56.54;100119.16;5099208;28;20262;-71
2021/06/21 08:58:56;;;;;;;11.20;2.78;;;28.20;99.90;;;27.99;55.94;100120.66;5107839;28;20191;-74
2021/06/21 09:01:23;;;;;;;6.47;2.17;;;28.20;99.90;;;28.06;55.50;100121.59;5098493;28;20218;-72
2021/06/21 09:03:51;;;;;;;10.13;2.17;;;28.30;99.90;;;28.14;55.48;100128.72;5102496;27;20187;-73
2021/06/21 09:06:23;;;;;;;7.85;2.20;;;28.30;99.90;;;28.13;55.42;100124.38;5100063;28;20186;-70
2021/06/21 09:08:55;;;;;;;7.07;2.22;;;28.30;99.90;;;28.05;55.60;100135.22;5120017;27;20199;-72
2021/06/21 09:11:40;;;;;;;8.73;2.40;;;28.20;99.90;;;27.94;55.98;100138.38;5100188;28;20190;-73
2021/06/21 09:14:29;;;;;;;9.85;3.10;;;28.20;99.90;;;27.81;56.90;100138.97;5099285;28;20199;-73
2021/06/21 09:16:57;;;;;;;11.10;2.75;;;28.00;99.90;;;27.83;57.29;100130.72;5103944;28;20427;-71
2021/06/21 09:19:25;;;;;;;7.88;2.70;;;28.00;99.90;;;27.96;57.14;100126.41;5108941;27;20646;-71
2021/06/21 09:21:54;;;;;;;6.93;2.22;;;28.10;99.90;;;28.14;56.40;100123.34;5106186;28;20226;-71
2021/06/21 09:24:23;;;;;;;8.02;2.30;;;28.30;99.90;;;28.17;56.26;100128.34;5107904;28;20192;-71
2021/06/21 09:26:53;;;;;;;8.45;2.60;;;28.40;99.90;;;28.22;56.52;100131.34;5102480;28;20218;-73
2021/06/21 09:29:35;;;;;;;7.65;2.88;;;28.50;99.90;;;28.37;56.64;100131.34;5109130;28;20194;-73
2021/06/21 09:32:02;;;;;;;8.73;2.72;;;28.60;99.90;;;28.52;56.37;100127.66;5109374;28;20194;-72
2021/06/21 09:34:29;;;;;;;8.68;3.05;;;28.80;99.90;;;28.68;55.85;100130.16;5096321;28;20198;-70
2021/06/21 09:37:08;;;;;;;7.60;3.05;;;29.10;99.90;;;28.79;55.38;100135.03;5103904;28;20206;-72
2021/06/21 09:39:39;;;;;;;6.88;2.67;;;29.20;99.90;;;28.83;55.22;100130.97;5104570;28;20247;-71
2021/06/21 09:42:19;;;;;;;8.10;3.15;;;29.20;99.90;;;28.79;55.20;100135.03;5105279;27;20795;-72
2021/06/21 09:44:48;;;;;;;7.30;3.20;;;29.20;99.90;;;28.68;55.45;100137.41;5102630;28;20189;-69
2021/06/21 09:47:29;;;;;;;8.90;3.90;;;29.10;99.90;;;28.64;55.91;100136.94;5105963;28;20223;-72
2021/06/21 09:50:18;;;;;;;12.23;5.95;;;29.00;99.90;;;28.63;56.64;100129.03;5102846;28;20229;-73
2021/06/21 09:52:55;;;;;;;11.30;4.82;;;29.10;99.90;;;28.61;56.57;100126.53;5116163;27;20230;-72
2021/06/21 09:55:27;;;;;;;12.55;4.32;;;29.00;99.90;;;28.69;56.70;100129.13;5106878;28;20189;-72
2021/06/21 09:58:07;;;;;;;11.38;4.35;;;29.10;99.90;;;28.75;56.82;100128.38;5109020;28;20741;-73
2021/06/21 10:00:36;;;;;;;9.35;4.03;;;29.20;99.90;;;28.77;56.68;100126.31;5098831;28;20606;-73
2021/06/21 10:03:09;;;;;;;11.90;4.70;;;29.20;99.90;;;28.84;56.41;100134.47;5105603;28;20198;-70
2021/06/21 10:05:40;;;;;;;11.05;4.55;;;29.30;99.90;;;28.90;56.37;100139.13;5105068;27;20543;-72
2021/06/21 10:08:11;;;;;;;10.20;4.00;;;29.30;99.90;;;28.92;56.03;100132.50;5102188;28;20210;-71
2021/06/21 10:10:39;;;;;;;11.85;4.28;;;29.30;99.90;;;28.92;56.16;100132.50;5108531;28;20646;-70
2021/06/21 10:13:07;;;;;;;10.15;3.78;;;29.30;99.90;;;28.92;56.37;100132.50;5097773;28;20683;-71
2021/06/21 10:15:35;;;;;;;9.02;3.40;;;29.30;99.90;;;28.93;56.26;100136.88;5093651;28;20190;-70
2021/06/21 10:18:06;;;;;;;9.80;3.75;;;29.30;99.90;;;28.96;56.08;100139.19;5114141;28;20214;-73